Time;durP1;ratioP1;P1;durP2;ratioP2;P2;SDS_P1;SDS_P2;PMS_P1;PMS_P2;Temp;Humidity;BMP_temperature;BMP_pressure;BME280_temperature;BME280_humidity;BME280_pressure;Samples;Min_cycle;Max_cycle;Signal;HPM_P1;HPM_P2
2022/06/06 00:01:58;;;;;;;;;4.33;4.33;;;;;19.56;58.57;101256.63;5115102;27;45019;-69
2022/06/06 00:04:26;;;;;;;;;6.00;6.00;;;;;19.29;58.92;101223.25;5114731;27;45143;-68
2022/06/06 00:06:53;;;;;;;;;5.00;4.00;;;;;19.43;59.25;101242.19;5128441;27;45168;-68
2022/06/06 00:09:19;;;;;;;;;4.00;4.00;;;;;19.47;59.34;101252.13;5135470;27;45460;-68
2022/06/06 00:11:44;;;;;;;;;4.00;4.00;;;;;19.48;59.59;101255.75;5133707;27;45126;-68
2022/06/06 00:14:12;;;;;;;;;4.00;4.00;;;;;19.50;59.78;101262.03;5129660;27;45463;-67
2022/06/06 00:16:39;;;;;;;;;5.00;5.00;;;;;19.46;60.15;101250.31;5114835;27;45413;-69
2022/06/06 00:19:04;;;;;;;;;8.67;6.67;;;;;19.41;60.19;101254.84;5124101;27;45116;-66
2022/06/06 00:21:31;;;;;;;;;8.67;6.33;;;;;19.00;59.88;101179.97;5114665;27;45256;-70
2022/06/06 00:23:59;;;;;;;;;5.33;5.33;;;;;19.37;60.46;101257.56;5114828;27;45075;-68
2022/06/06 00:26:27;;;;;;;;;8.00;8.00;;;;;19.29;60.57;101258.50;5132259;27;45094;-69
2022/06/06 00:28:53;;;;;;;;;8.33;8.33;;;;;19.28;61.09;101253.06;5134460;27;44952;-68
2022/06/06 00:36:47;;;;;;;;;13.00;11.00;;;;;19.03;61.54;101230.53;5134811;27;44969;-68
2022/06/06 00:39:14;;;;;;;;;11.33;10.33;;;;;19.11;60.98;101244.97;5128496;27;45186;-69
2022/06/06 00:41:46;;;;;;;;;15.33;10.67;;;;;18.99;60.94;101226.94;5114652;27;45682;-68
2022/06/06 00:44:18;;;;;;;;;14.00;11.00;;;;;19.08;60.85;101242.25;5117160;27;45186;-68
2022/06/06 00:46:53;;;;;;;;;10.33;10.33;;;;;18.90;61.05;101211.56;5115674;27;45107;-68
2022/06/06 00:49:24;;;;;;;;;11.00;10.00;;;;;19.01;61.30;101230.53;5095477;27;45028;-67
2022/06/06 00:51:50;;;;;;;;;10.33;10.00;;;;;19.04;61.29;101221.47;5114383;27;45132;-70
2022/06/06 00:54:17;;;;;;;;;15.33;10.67;;;;;19.08;61.29;101224.19;5114585;27;45059;-68
2022/06/06 00:56:49;;;;;;;;;13.67;10.67;;;;;19.13;61.00;101221.50;5125862;27;45115;-69
2022/06/06 00:59:19;;;;;;;;;17.00;11.00;;;;;19.05;60.76;101217.88;5125364;27;45079;-68
2022/06/06 01:01:46;;;;;;;;;14.33;14.33;;;;;18.60;61.02;101148.38;5133998;27;45642;-68
2022/06/06 01:04:15;;;;;;;;;12.00;11.33;;;;;18.97;61.32;101228.72;5133913;27;45099;-68
2022/06/06 01:06:44;;;;;;;;;16.00;14.67;;;;;18.95;61.12;101219.69;5134381;27;44938;-68
2022/06/06 01:09:11;;;;;;;;;11.67;11.33;;;;;18.98;61.05;101232.34;5128279;27;46191;-69
2022/06/06 01:11:41;;;;;;;;;11.67;9.00;;;;;18.55;61.03;101146.59;5114530;27;45602;-69
2022/06/06 01:14:11;;;;;;;;;6.33;5.33;;;;;19.01;61.20;101213.41;5120033;27;45259;-68
2022/06/06 01:16:39;;;;;;;;;16.00;13.67;;;;;19.04;61.12;101211.59;5124763;27;45100;-68
2022/06/06 01:19:11;;;;;;;;;11.33;11.00;;;;;19.05;61.20;101212.47;5133416;27;45010;-68
2022/06/06 01:22:11;;;;;;;;;10.33;8.67;;;;;18.89;61.34;101192.63;5124040;27;45234;-68
2022/06/06 01:24:39;;;;;;;;;11.33;10.67;;;;;18.97;61.39;101223.28;5112684;27;44995;-68
2022/06/06 01:27:22;;;;;;;;;7.00;6.67;;;;;18.92;61.56;101211.56;5114455;27;45056;-67
2022/06/06 01:29:53;;;;;;;;;8.00;6.33;;;;;18.87;61.62;101211.56;5126305;27;45012;-67
2022/06/06 01:32:21;;;;;;;;;7.00;6.00;;;;;18.64;61.55;101179.06;5132902;27;45414;-69
2022/06/06 01:34:51;;;;;;;;;5.00;5.00;;;;;18.31;61.58;101120.44;5120853;27;45431;-68
2022/06/06 01:37:39;;;;;;;;;6.00;6.00;;;;;18.82;61.44;101207.03;5112517;27;45155;-67
2022/06/06 01:40:09;;;;;;;;;8.00;6.33;;;;;18.70;61.42;101194.41;5122474;27;45151;-68
2022/06/06 01:42:47;;;;;;;;;7.00;5.67;;;;;18.79;61.63;101208.84;5132312;27;45828;-69
2022/06/06 01:45:28;;;;;;;;;7.00;5.33;;;;;18.78;61.54;101212.44;5134077;27;45034;-68
2022/06/06 01:48:01;;;;;;;;;10.67;5.33;;;;;18.76;60.53;101214.25;5134496;27;45286;-70
2022/06/06 01:50:27;;;;;;;;;5.67;4.33;;;;;18.78;61.44;101228.69;5134435;27;45022;-67
2022/06/06 01:53:05;;;;;;;;;6.00;5.00;;;;;18.79;61.37;101214.25;5116070;27;45919;-69
2022/06/06 01:55:32;;;;;;;;;7.00;7.00;;;;;18.79;61.17;101214.25;5113621;27;44953;-68
2022/06/06 01:58:05;;;;;;;;;5.00;5.00;;;;;18.79;60.93;101210.63;5115713;27;45130;-68
2022/06/06 02:00:33;;;;;;;;;9.33;6.00;;;;;18.72;60.18;101212.44;5115810;27;44905;-69
2022/06/06 02:02:59;;;;;;;;;4.00;4.00;;;;;18.50;60.13;101187.19;5113329;27;45844;-70
2022/06/06 02:05:25;;;;;;;;;3.00;1.00;;;;;18.52;59.72;101200.72;5130018;27;45229;-68
2022/06/06 02:07:50;;;;;;;;;4.00;4.00;;;;;18.49;59.29;101207.00;5115726;27;45197;-71
2022/06/06 02:10:17;;;;;;;;;6.00;4.00;;;;;18.35;59.48;101200.69;5112599;27;45000;-71
2022/06/06 02:12:43;;;;;;;;;4.00;4.00;;;;;18.16;60.00;101187.13;5112299;27;45163;-67
2022/06/06 02:15:11;;;;;;;;;4.00;4.00;;;;;18.24;60.11;101212.38;5112574;27;45336;-70
2022/06/06 02:17:36;;;;;;;;;8.67;4.00;;;;;18.11;60.09;101202.44;5112862;27;44859;-71
2022/06/06 02:20:04;;;;;;;;;6.33;5.00;;;;;18.14;60.39;101207.84;5113392;27;45002;-69
2022/06/06 02:22:30;;;;;;;;;5.67;5.67;;;;;17.84;60.51;101160.88;5112778;27;46590;-71
2022/06/06 02:24:55;;;;;;;;;7.67;5.00;;;;;18.12;60.67;101209.66;5093825;27;45371;-67
2022/06/06 02:27:21;;;;;;;;;2.67;1.00;;;;;18.06;60.73;101209.63;5112934;27;45367;-69
2022/06/06 02:29:46;;;;;;;;;5.33;5.00;;;;;18.03;60.96;101207.84;5112073;27;45030;-69
2022/06/06 02:32:11;;;;;;;;;4.00;4.00;;;;;17.98;61.06;101212.34;5125081;27;45631;-68
2022/06/06 02:34:40;;;;;;;;;3.00;3.00;;;;;17.96;60.95;101211.41;5132741;27;45152;-71
2022/06/06 02:37:06;;;;;;;;;3.33;3.33;;;;;17.95;61.20;101206.00;5132157;27;44986;-70
2022/06/06 02:39:32;;;;;;;;;3.33;3.00;;;;;17.95;61.17;101204.22;5127306;27;45123;-71
2022/06/06 02:41:57;;;;;;;;;5.33;5.00;;;;;17.91;61.28;101210.50;5125231;27;45672;-69
2022/06/06 02:44:23;;;;;;;;;3.67;3.67;;;;;17.95;60.55;101214.09;5131494;27;45199;-69
2022/06/06 02:46:49;;;;;;;;;8.00;4.33;;;;;17.90;60.73;101205.06;5115193;27;45344;-67
2022/06/06 02:49:15;;;;;;;;;4.33;4.00;;;;;17.85;61.04;101213.13;5118284;27;45148;-68
2022/06/06 02:51:41;;;;;;;;;3.00;3.00;;;;;17.77;60.31;101210.41;5133049;27;45229;-68
2022/06/06 02:54:07;;;;;;;;;4.00;4.00;;;;;17.58;60.39;101179.69;5131433;27;45128;-70
2022/06/06 02:56:32;;;;;;;;;5.67;4.33;;;;;17.71;60.43;101209.50;5127388;27;45425;-70
2022/06/06 02:59:03;;;;;;;;;3.00;3.00;;;;;17.68;60.00;101197.75;5117720;27;45165;-70
2022/06/06 03:01:29;;;;;;;;;3.67;3.67;;;;;17.62;59.42;101202.22;5132471;27;45879;-70
2022/06/06 03:03:54;;;;;;;;;3.67;3.67;;;;;17.56;59.56;101196.81;5132905;27;45339;-69
2022/06/06 03:06:32;;;;;;;;;3.00;3.00;;;;;17.49;59.28;101207.59;5133443;27;44920;-68
2022/06/06 03:08:58;;;;;;;;;5.67;4.00;;;;;17.47;59.63;101201.28;5134237;27;45115;-67
2022/06/06 03:11:38;;;;;;;;;4.33;4.33;;;;;17.47;59.30;101203.97;5114712;27;47150;-69
2022/06/06 03:14:45;;;;;;;;;4.00;4.00;;;;;17.46;59.43;101210.25;5115214;27;45711;-68
2022/06/06 03:23:20;;;;;;;;;3.00;2.00;;;;;17.50;58.86;101206.69;5130291;27;45068;-70
2022/06/06 03:25:59;;;;;;;;;2.00;2.00;;;;;17.55;59.38;101213.91;5132560;27;45067;-69
2022/06/06 03:28:39;;;;;;;;;2.00;2.00;;;;;17.56;58.64;101210.31;5132882;27;45092;-69
2022/06/06 03:31:30;;;;;;;;;4.33;3.00;;;;;17.10;58.50;101132.66;5120772;27;45121;-70
2022/06/06 03:34:26;;;;;;;;;4.00;2.00;;;;;17.56;58.41;101216.63;5111919;27;45441;-68
2022/06/06 03:36:52;;;;;;;;;2.00;2.00;;;;;17.55;58.10;101211.22;5111256;27;45038;-69
2022/06/06 03:39:29;;;;;;;;;2.00;2.00;;;;;17.57;58.41;101217.50;5113021;27;44892;-69
2022/06/06 03:42:06;;;;;;;;;1.33;1.33;;;;;17.28;58.30;101172.34;5125832;27;45191;-69
2022/06/06 03:44:50;;;;;;;;;4.00;2.67;;;;;17.57;58.08;101218.44;5115994;27;45436;-67
2022/06/06 03:47:50;;;;;;;;;4.00;4.00;;;;;17.58;58.39;101225.63;5114971;27;45620;-68
2022/06/06 03:50:31;;;;;;;;;1.33;1.33;;;;;17.38;57.83;101192.22;5115711;27;45089;-69
2022/06/06 03:53:05;;;;;;;;;4.00;3.00;;;;;17.55;57.75;101219.31;5115880;27;45102;-69
2022/06/06 03:55:45;;;;;;;;;1.67;1.67;;;;;17.48;57.51;101221.06;5115444;27;45243;-68
2022/06/06 03:58:14;;;;;;;;;3.00;2.00;;;;;17.40;58.02;101215.63;5133332;27;45149;-69
2022/06/06 04:00:40;;;;;;;;;4.00;2.00;;;;;17.35;57.93;101217.41;5119482;27;45277;-67
2022/06/06 04:03:06;;;;;;;;;4.00;3.00;;;;;17.25;57.73;101200.22;5114689;27;45313;-67
2022/06/06 04:05:36;;;;;;;;;3.00;2.00;;;;;17.36;57.54;101226.44;5115729;27;45668;-70
2022/06/06 04:08:01;;;;;;;;;2.00;2.00;;;;;17.16;57.77;101193.88;5115965;27;45108;-68
2022/06/06 04:10:45;;;;;;;;;2.00;2.00;;;;;17.23;57.47;101220.94;5115004;27;45032;-71
2022/06/06 04:13:35;;;;;;;;;1.33;1.33;;;;;17.24;58.00;101229.91;5126571;27;44904;-70
2022/06/06 04:16:23;;;;;;;;;2.00;2.00;;;;;17.04;57.86;101194.69;5115073;27;45762;-71
2022/06/06 04:19:23;;;;;;;;;1.33;1.00;;;;;17.22;57.58;101232.59;5128846;27;44983;-70
2022/06/06 04:22:06;;;;;;;;;1.67;1.67;;;;;17.22;57.50;101231.72;5135006;27;45210;-69
2022/06/06 04:25:00;;;;;;;;;2.00;2.00;;;;;17.23;57.69;101234.44;5114112;27;45244;-70
2022/06/06 04:27:47;;;;;;;;;4.00;2.33;;;;;16.85;58.02;101161.28;5102781;27;46396;-68
2022/06/06 04:30:34;;;;;;;;;3.33;2.00;;;;;17.35;58.36;101246.22;5132779;27;45188;-70
2022/06/06 04:33:19;;;;;;;;;1.67;1.67;;;;;17.34;58.26;101228.19;5132316;27;45015;-68
2022/06/06 04:36:10;;;;;;;;;2.00;2.00;;;;;17.38;58.61;101244.44;5123622;27;45229;-69
2022/06/06 04:38:41;;;;;;;;;3.00;3.00;;;;;17.43;58.82;101234.56;5127611;27;45632;-70
2022/06/06 04:41:22;;;;;;;;;3.00;2.00;;;;;17.52;58.10;101228.28;5115911;27;45015;-70
2022/06/06 04:44:05;;;;;;;;;1.67;1.67;;;;;17.53;58.56;101240.91;5114363;27;45032;-68
2022/06/06 04:46:42;;;;;;;;;2.33;2.33;;;;;17.54;58.26;101233.69;5136252;27;44948;-68
2022/06/06 04:49:10;;;;;;;;;2.33;2.33;;;;;17.31;58.95;101196.69;5137136;27;45171;-69
2022/06/06 04:51:38;;;;;;;;;3.00;2.00;;;;;17.54;58.79;101233.69;5114343;27;45098;-68
2022/06/06 04:54:04;;;;;;;;;4.00;3.33;;;;;17.06;58.67;101150.63;5112627;27;44949;-70
2022/06/06 04:56:32;;;;;;;;;2.33;2.33;;;;;17.39;58.43;101208.44;5115785;27;45212;-69
2022/06/06 04:59:00;;;;;;;;;3.00;2.00;;;;;17.55;58.68;101233.72;5113916;27;45861;-70
2022/06/06 05:01:26;;;;;;;;;4.33;3.00;;;;;17.55;58.34;101230.13;5134807;27;45094;-70
2022/06/06 05:03:51;;;;;;;;;2.00;2.00;;;;;17.36;58.17;101208.41;5116807;27;45066;-70
2022/06/06 05:06:17;;;;;;;;;1.33;1.00;;;;;17.51;58.09;101237.31;5115380;27;44996;-68
2022/06/06 05:08:56;;;;;;;;;2.67;1.00;;;;;17.45;58.56;101230.06;5114289;27;45259;-69
2022/06/06 05:11:21;;;;;;;;;1.00;1.00;;;;;17.50;58.39;101238.19;5114477;27;45112;-67
2022/06/06 05:13:57;;;;;;;;;2.00;2.00;;;;;17.41;58.32;101228.25;5114658;27;44934;-68
2022/06/06 05:16:44;;;;;;;;;4.00;2.67;;;;;17.49;58.48;101244.50;5123941;27;45110;-69
2022/06/06 05:19:19;;;;;;;;;1.00;1.00;;;;;17.52;58.36;101246.31;5132402;27;45149;-68
2022/06/06 05:21:56;;;;;;;;;2.00;2.00;;;;;17.49;57.69;101239.09;5132477;27;44901;-67
2022/06/06 05:24:21;;;;;;;;;3.67;2.00;;;;;17.44;57.75;101241.78;5133017;27;45180;-70
2022/06/06 05:27:14;;;;;;;;;1.00;1.00;;;;;17.38;57.74;101243.53;5121047;27;44930;-66
2022/06/06 05:29:58;;;;;;;;;1.00;1.00;;;;;17.30;58.32;101238.97;5112166;27;45126;-70
2022/06/06 05:32:38;;;;;;;;;1.00;1.00;;;;;17.33;58.39;101248.00;5111606;27;45261;-67
2022/06/06 05:35:29;;;;;;;;;1.00;1.00;;;;;17.37;57.25;101250.72;5100389;27;46128;-68
2022/06/06 05:38:00;;;;;;;;;1.00;1.00;;;;;17.36;57.24;101246.22;5107449;27;45167;-71
2022/06/06 05:40:34;;;;;;;;;1.00;1.00;;;;;17.33;57.78;101251.59;5110829;27;45174;-68
2022/06/06 05:43:40;;;;;;;;;1.67;0.00;;;;;17.33;58.08;101251.59;5110342;27;45102;-68
2022/06/06 05:46:14;;;;;;;;;2.33;2.00;;;;;17.36;57.74;101251.63;5103957;27;45312;-70
2022/06/06 05:49:05;;;;;;;;;1.00;1.00;;;;;17.38;57.71;101247.13;5097251;27;44988;-69
2022/06/06 05:51:52;;;;;;;;;2.00;2.00;;;;;17.41;57.98;101248.97;5094311;27;45182;-70
2022/06/06 05:54:42;;;;;;;;;2.00;2.00;;;;;17.41;58.09;101243.56;5092116;27;45505;-68
2022/06/06 05:57:19;;;;;;;;;1.67;1.67;;;;;17.40;57.82;101253.44;5092585;27;45155;-70
2022/06/06 06:00:10;;;;;;;;;1.00;1.00;;;;;17.39;57.81;101251.66;5111975;27;45216;-70
2022/06/06 06:03:04;;;;;;;;;0.67;0.67;;;;;17.37;58.32;101258.81;5110940;27;45621;-70
2022/06/06 06:05:29;;;;;;;;;1.67;1.67;;;;;17.39;58.55;101248.94;5099770;27;45036;-69
2022/06/06 06:08:20;;;;;;;;;0.67;0.33;;;;;17.41;57.88;101265.16;5084517;27;44922;-70
2022/06/06 06:10:55;;;;;;;;;0.00;0.00;;;;;17.36;58.38;101267.84;5113632;27;45192;-67
2022/06/06 06:13:27;;;;;;;;;1.00;1.00;;;;;17.31;58.34;101262.41;5112143;27;45001;-67
2022/06/06 06:15:56;;;;;;;;;0.67;0.67;;;;;17.26;58.77;101269.56;5094811;27;44995;-67
2022/06/06 06:18:33;;;;;;;;;1.67;1.00;;;;;17.23;58.39;101264.13;5092186;27;45195;-71
2022/06/06 06:21:04;;;;;;;;;0.67;0.67;;;;;17.20;58.28;101249.72;5091004;27;45261;-67
2022/06/06 06:23:33;;;;;;;;;1.00;1.00;;;;;17.40;58.41;101272.34;5091066;27;46187;-71
2022/06/06 06:26:02;;;;;;;;;1.00;1.00;;;;;17.51;58.46;101277.84;5091530;27;45075;-68
2022/06/06 06:28:29;;;;;;;;;0.33;0.00;;;;;17.38;57.80;101260.63;5090448;27;44964;-68
2022/06/06 06:31:32;;;;;;;;;1.00;1.00;;;;;17.50;57.84;101284.13;5089843;27;45376;-69
2022/06/06 06:34:20;;;;;;;;;0.00;0.00;;;;;17.55;58.09;101282.34;5111578;27;45583;-72
2022/06/06 06:36:51;;;;;;;;;1.00;1.00;;;;;17.45;57.74;101257.06;5112396;27;44898;-68
2022/06/06 06:39:45;;;;;;;;;1.33;0.00;;;;;17.66;57.53;101291.44;5100198;27;45278;-71
2022/06/06 06:42:48;;;;;;;;;1.00;1.00;;;;;17.61;57.54;101265.28;5097851;27;45050;-69
2022/06/06 06:45:44;;;;;;;;;0.33;0.33;;;;;17.72;57.11;101278.84;5097567;27;47701;-72
2022/06/06 06:48:13;;;;;;;;;1.00;1.00;;;;;17.88;56.91;101291.56;5102029;27;45417;-70
2022/06/06 06:51:03;;;;;;;;;0.33;0.33;;;;;17.95;56.90;101298.84;5106645;27;45410;-72
2022/06/06 06:53:47;;;;;;;;;3.00;1.33;;;;;18.00;56.90;101298.84;5113741;27;45146;-69
2022/06/06 06:56:38;;;;;;;;;2.00;1.00;;;;;18.01;56.93;101300.66;5103577;27;45641;-72
2022/06/06 06:59:15;;;;;;;;;1.00;1.00;;;;;18.10;56.49;101289.88;5098246;27;45646;-69
2022/06/06 07:08:34;;;;;;;;;3.00;1.00;;;;;18.33;55.77;101294.44;5054034;27;45514;-71
2022/06/06 07:11:20;;;;;;;;;3.67;2.33;;;;;18.36;55.46;101299.88;5102915;27;45445;-72
2022/06/06 07:14:12;;;;;;;;;2.00;2.00;;;;;18.43;55.53;101293.59;5113899;27;45805;-73
2022/06/06 07:16:40;;;;;;;;;1.67;1.00;;;;;18.42;55.23;101289.09;5130547;27;45482;-70
2022/06/06 07:19:12;;;;;;;;;1.00;1.00;;;;;18.49;55.10;101295.41;5137529;27;46043;-67
2022/06/06 07:21:40;;;;;;;;;1.00;1.00;;;;;18.54;55.19;101297.22;5136774;27;45162;-68
2022/06/06 07:24:12;;;;;;;;;1.33;1.33;;;;;18.66;55.23;101292.72;5127360;27;45361;-71
2022/06/06 07:26:41;;;;;;;;;1.00;1.00;;;;;18.81;54.95;101298.19;5135297;27;45063;-72
2022/06/06 07:29:08;;;;;;;;;1.00;1.00;;;;;18.85;54.28;101285.59;5128647;27;45525;-67
2022/06/06 07:31:52;;;;;;;;;1.67;1.00;;;;;18.92;53.76;101290.09;5135435;27;45130;-71
2022/06/06 07:34:32;;;;;;;;;2.67;1.00;;;;;18.99;53.80;101293.72;5135692;27;45069;-70
2022/06/06 07:37:07;;;;;;;;;3.00;1.67;;;;;19.09;53.17;101287.38;5136616;27;45071;-71
2022/06/06 07:39:35;;;;;;;;;1.67;1.67;;;;;19.21;53.16;101279.25;5115160;27;45440;-70
2022/06/06 07:42:31;;;;;;;;;2.33;2.33;;;;;19.35;52.34;101279.25;5125085;27;45418;-74
2022/06/06 07:45:15;;;;;;;;;0.67;0.00;;;;;19.49;52.23;101271.09;5117435;27;45256;-72
2022/06/06 07:47:51;;;;;;;;;1.00;1.00;;;;;19.87;50.68;101278.25;5117912;27;45297;-72
2022/06/06 07:50:24;;;;;;;;;4.00;1.33;;;;;19.87;50.48;101234.88;5114104;27;45507;-71
2022/06/06 07:53:05;;;;;;;;;2.67;1.33;;;;;20.19;49.72;101275.38;5097896;27;45495;-73
2022/06/06 07:55:43;;;;;;;;;1.00;1.00;;;;;20.14;49.15;101269.09;5097986;27;45640;-73
2022/06/06 07:58:21;;;;;;;;;3.00;3.00;;;;;19.93;49.42;101243.00;5096137;27;45451;-71
2022/06/06 08:01:13;;;;;;;;;1.00;1.00;;;;;20.14;49.45;101271.81;5097884;27;46536;-72
2022/06/06 08:04:00;;;;;;;;;5.00;1.00;;;;;20.19;49.24;101269.06;5078527;27;45572;-74
2022/06/06 08:07:07;;;;;;;;;1.00;1.00;;;;;20.25;48.70;101266.34;5113160;27;45421;-71
2022/06/06 08:09:54;;;;;;;;;1.00;1.00;;;;;20.33;48.88;101274.44;5085392;27;45546;-67
2022/06/06 08:12:43;;;;;;;;;0.00;0.00;;;;;20.37;48.44;101266.25;5104654;27;46133;-66
2022/06/06 08:15:22;;;;;;;;;0.00;0.00;;;;;20.43;47.79;101263.50;5116330;27;45379;-66
2022/06/06 08:18:09;;;;;;;;;1.33;1.33;;;;;20.44;48.04;101262.59;5102641;27;45357;-66
2022/06/06 08:20:59;;;;;;;;;5.00;1.00;;;;;20.47;47.91;101264.38;5113506;27;45282;-65
2022/06/06 08:23:26;;;;;;;;;1.00;1.00;;;;;20.40;47.80;101258.09;5126389;27;45208;-68
2022/06/06 08:25:54;;;;;;;;;0.00;0.00;;;;;20.48;47.70;101270.75;5132035;27;45316;-66
2022/06/06 08:28:21;;;;;;;;;1.67;0.67;;;;;20.53;47.74;101260.75;5124965;27;45423;-66
2022/06/06 08:30:47;;;;;;;;;0.67;0.67;;;;;20.16;46.91;101187.69;5132058;27;45240;-66
2022/06/06 08:33:13;;;;;;;;;2.33;1.00;;;;;20.57;47.12;101246.22;5124655;27;45221;-66
2022/06/06 08:35:50;;;;;;;;;1.00;1.00;;;;;20.73;46.58;101255.22;5110521;27;45388;-62
2022/06/06 08:38:40;;;;;;;;;0.00;0.00;;;;;20.84;46.41;101246.97;5111638;27;45441;-67
2022/06/06 08:41:45;;;;;;;;;0.00;0.00;;;;;20.92;45.65;101246.00;5117657;27;45455;-65
2022/06/06 08:44:36;;;;;;;;;1.00;1.00;;;;;20.99;45.47;101247.75;5121424;27;45551;-63
2022/06/06 08:47:06;;;;;;;;;0.67;0.67;;;;;21.04;44.73;101244.09;5084194;27;45642;-65
2022/06/06 08:53:11;;;;;;;;;0.00;0.00;;;;;21.01;44.42;101247.72;5086831;27;45521;-66
2022/06/06 08:55:58;;;;;;;;;0.00;0.00;;;;;21.01;44.45;101241.41;5109311;27;45362;-65
2022/06/06 08:58:50;;;;;;;;;1.00;1.00;;;;;21.05;44.87;101246.81;5106160;27;45294;-73
2022/06/06 09:01:31;;;;;;;;;0.00;0.00;;;;;21.17;44.30;101246.69;5117188;27;45142;-62
2022/06/06 09:04:15;;;;;;;;;1.00;1.00;;;;;21.33;44.13;101247.44;5119131;27;45354;-65
2022/06/06 09:07:06;;;;;;;;;0.00;0.00;;;;;21.46;42.93;101242.75;5122180;27;45379;-63
2022/06/06 09:09:46;;;;;;;;;1.00;1.00;;;;;21.46;42.28;101250.00;5117184;27;45693;-68
2022/06/06 09:12:46;;;;;;;;;0.00;0.00;;;;;21.39;42.96;101248.28;5123145;27;45300;-67
2022/06/06 09:15:50;;;;;;;;;0.00;0.00;;;;;21.35;43.61;101245.59;5116472;27;45323;-68
2022/06/06 09:18:47;;;;;;;;;0.33;0.33;;;;;21.37;43.47;101250.13;5067442;27;46279;-70
2022/06/06 09:21:21;;;;;;;;;0.67;0.67;;;;;21.36;42.81;101241.06;5071439;27;45373;-68
2022/06/06 09:24:27;;;;;;;;;0.00;0.00;;;;;21.30;43.09;101208.50;5098891;27;45527;-67
2022/06/06 09:27:04;;;;;;;;;2.00;1.00;;;;;21.52;42.79;101240.00;5122160;27;45197;-71
2022/06/06 09:29:35;;;;;;;;;1.00;1.00;;;;;21.42;42.39;101246.44;5122468;27;45368;-70
2022/06/06 09:32:23;;;;;;;;;2.00;0.33;;;;;21.29;41.73;101233.88;5122485;27;45585;-70
2022/06/06 09:35:05;;;;;;;;;2.00;1.00;;;;;21.37;41.80;101239.25;5097711;27;45523;-68
2022/06/06 09:38:00;;;;;;;;;4.33;1.00;;;;;21.30;41.71;101227.50;5122581;27;45330;-72
2022/06/06 09:40:48;;;;;;;;;0.33;0.33;;;;;21.27;41.42;101235.72;5119704;27;46072;-72
2022/06/06 09:43:32;;;;;;;;;0.67;0.00;;;;;21.26;41.98;101239.34;5115025;27;45396;-66
2022/06/06 09:46:40;;;;;;;;;1.67;0.00;;;;;21.28;42.21;101233.00;5124568;27;45348;-66
2022/06/06 09:49:30;;;;;;;;;0.00;0.00;;;;;21.41;41.69;101227.41;5125312;27;45236;-65
2022/06/06 09:52:30;;;;;;;;;0.00;0.00;;;;;21.57;41.41;101228.19;5114043;27;45330;-65
2022/06/06 10:01:13;;;;;;;;;1.00;1.00;;;;;21.31;40.34;101232.94;5130230;27;45297;-65
2022/06/06 10:04:06;;;;;;;;;1.00;1.00;;;;;21.42;41.60;101234.66;5054426;27;45384;-65
2022/06/06 10:07:07;;;;;;;;;1.67;0.33;;;;;21.56;40.53;101231.81;5107737;27;45278;-67
2022/06/06 10:09:47;;;;;;;;;1.33;1.33;;;;;21.76;40.09;101228.84;5109847;27;45226;-64
2022/06/06 10:12:28;;;;;;;;;0.00;0.00;;;;;21.80;38.71;101226.09;5130086;27;45074;-65
2022/06/06 10:15:20;;;;;;;;;12.00;10.33;;;;;21.88;39.21;101235.06;5117828;27;46421;-67
2022/06/06 10:18:24;;;;;;;;;1.00;0.67;;;;;21.93;38.86;101234.06;5128615;27;44968;-65
2022/06/06 10:21:10;;;;;;;;;2.00;0.00;;;;;21.94;39.10;101228.63;5078899;27;45192;-65
2022/06/06 10:23:48;;;;;;;;;0.33;0.33;;;;;21.97;39.10;101235.84;5109577;27;45202;-66
2022/06/06 10:26:42;;;;;;;;;1.00;1.00;;;;;21.97;39.16;101239.47;5110054;27;45316;-65
2022/06/06 10:29:18;;;;;;;;;2.00;2.00;;;;;21.90;39.30;101238.66;5125113;27;45120;-66
2022/06/06 10:32:05;;;;;;;;;1.00;1.00;;;;;21.92;38.16;101240.47;5129978;27;45292;-67
2022/06/06 10:34:51;;;;;;;;;1.00;1.00;;;;;21.86;37.79;101238.69;5131104;27;45133;-66
2022/06/06 10:37:34;;;;;;;;;0.00;0.00;;;;;21.84;37.59;101237.81;5129291;27;45554;-65
2022/06/06 10:40:14;;;;;;;;;3.33;1.00;;;;;21.99;37.22;101242.16;5130571;27;45359;-67
2022/06/06 10:43:00;;;;;;;;;0.00;0.00;;;;;22.12;36.88;101237.47;5131984;27;45008;-66
2022/06/06 10:45:35;;;;;;;;;1.33;1.00;;;;;22.20;37.08;101235.53;5133077;27;45200;-65
2022/06/06 10:48:16;;;;;;;;;2.00;0.33;;;;;22.32;37.16;101231.78;5136915;27;45227;-65
2022/06/06 10:54:02;;;;;;;;;1.67;1.67;;;;;22.54;37.37;101226.94;5136122;27;45061;-65
2022/06/06 10:56:46;;;;;;;;;1.00;1.00;;;;;22.71;37.11;101223.94;5136790;27;45181;-66
2022/06/06 10:59:37;;;;;;;;;0.33;0.33;;;;;22.85;36.59;101224.59;5123563;27;45787;-66
2022/06/06 11:02:05;;;;;;;;;0.67;0.67;;;;;22.90;35.73;101222.69;5118631;27;45016;-68
2022/06/06 11:04:44;;;;;;;;;1.67;0.00;;;;;22.91;36.05;101221.75;5118660;27;45044;-68
2022/06/06 11:07:21;;;;;;;;;2.00;1.33;;;;;22.86;35.69;101214.59;5120219;27;45087;-65
2022/06/06 11:09:55;;;;;;;;;0.00;0.00;;;;;22.85;35.78;101219.16;5119347;27;45857;-66
2022/06/06 11:12:32;;;;;;;;;1.33;1.00;;;;;22.83;35.78;101218.25;5132782;27;44960;-66
2022/06/06 11:15:01;;;;;;;;;2.00;2.00;;;;;22.67;35.72;101217.63;5139064;27;44958;-66
2022/06/06 11:18:05;;;;;;;;;0.00;0.00;;;;;22.66;36.01;101221.28;5136932;27;45203;-65
2022/06/06 11:20:51;;;;;;;;;1.00;0.00;;;;;22.59;36.19;101214.13;5133214;27;45610;-66
2022/06/06 11:23:28;;;;;;;;;2.67;2.67;;;;;22.64;35.93;101221.28;5122908;27;45108;-67
2022/06/06 11:26:19;;;;;;;;;0.00;0.00;;;;;22.65;36.23;101219.47;5123425;27;45341;-66
2022/06/06 11:28:57;;;;;;;;;2.00;1.00;;;;;22.74;36.12;101219.31;5128054;27;45155;-65
2022/06/06 11:31:36;;;;;;;;;3.33;1.00;;;;;22.78;36.25;101220.16;5112535;27;46127;-65
2022/06/06 11:34:10;;;;;;;;;1.33;1.00;;;;;22.79;36.41;101221.97;5107320;27;45227;-66
2022/06/06 11:37:17;;;;;;;;;3.00;1.00;;;;;22.70;36.45;101216.66;5096754;27;45152;-66
2022/06/06 11:40:11;;;;;;;;;1.00;1.00;;;;;22.66;36.53;101220.38;5020111;28;45265;-67
2022/06/06 11:43:16;;;;;;;;;0.33;0.33;;;;;22.55;36.77;101215.97;5109474;27;45957;-66
2022/06/06 11:46:19;;;;;;;;;2.00;1.00;;;;;22.57;36.73;101219.59;5083838;27;45527;-66
2022/06/06 11:49:13;;;;;;;;;1.00;1.00;;;;;22.46;37.23;101218.88;5101123;27;45150;-67
2022/06/06 11:52:03;;;;;;;;;2.00;0.33;;;;;22.45;37.58;101225.22;5104997;27;45163;-65
2022/06/06 11:54:56;;;;;;;;;0.00;0.00;;;;;22.42;37.69;101223.47;5094608;27;45745;-66
2022/06/06 11:57:38;;;;;;;;;2.00;2.00;;;;;22.57;37.27;101216.88;5098127;27;45194;-65
2022/06/06 12:00:07;;;;;;;;;0.67;0.67;;;;;22.67;37.41;101212.19;5104660;27;45376;-66
2022/06/06 12:02:53;;;;;;;;;1.00;1.00;;;;;22.55;36.94;101191.47;5091781;27;45216;-66
2022/06/06 12:05:30;;;;;;;;;0.00;0.00;;;;;22.85;36.37;101218.22;5081445;27;47581;-66
2022/06/06 12:08:14;;;;;;;;;2.00;1.00;;;;;22.87;36.37;101217.28;5092835;27;45623;-66
2022/06/06 12:10:45;;;;;;;;;0.67;0.67;;;;;22.96;36.32;101206.22;5094660;27;44945;-67
2022/06/06 12:13:48;;;;;;;;;1.00;1.00;;;;;22.93;36.12;101203.56;5099704;27;45535;-64
2022/06/06 12:16:32;;;;;;;;;4.67;1.67;;;;;22.84;36.10;101200.09;5096634;27;45577;-66
2022/06/06 12:19:35;;;;;;;;;1.00;1.00;;;;;22.80;36.38;101205.59;5093728;27;45065;-65
2022/06/06 12:22:28;;;;;;;;;1.00;1.00;;;;;22.81;36.54;101206.50;5096715;27;45563;-67
2022/06/06 12:25:25;;;;;;;;;1.33;1.33;;;;;22.75;35.96;101193.88;5103491;27;45177;-68
2022/06/06 12:28:15;;;;;;;;;3.67;1.00;;;;;22.95;35.63;101198.06;5084026;27;45305;-66
2022/06/06 12:31:12;;;;;;;;;0.00;0.00;;;;;22.76;35.87;101151.19;5106179;27;45054;-67
2022/06/06 12:33:51;;;;;;;;;0.00;0.00;;;;;22.92;35.84;101171.78;5080429;27;45309;-65
2022/06/06 12:36:30;;;;;;;;;0.00;0.00;;;;;23.03;35.98;101182.47;5102475;27;45103;-66
2022/06/06 12:39:13;;;;;;;;;1.00;1.00;;;;;22.99;35.14;101162.56;5101646;27;45368;-65
2022/06/06 12:41:39;;;;;;;;;0.00;0.00;;;;;23.18;35.27;101181.31;5098032;27;45543;-66
2022/06/06 12:44:27;;;;;;;;;3.33;2.00;;;;;23.26;35.01;101175.72;5102448;27;45171;-68
2022/06/06 12:47:10;;;;;;;;;1.00;1.00;;;;;23.35;34.09;101178.28;5101989;27;45289;-66
2022/06/06 12:50:05;;;;;;;;;0.00;0.00;;;;;23.28;34.10;101172.06;5107772;27;45251;-66